Hamlin, West Virginia
Current Conditions -  °F | °C
As of 6:51 PM on Friday 28 Nov 2014 (Local Time) from KHTS Reporting Station
Scattered Clouds Scattered Clouds  
Wind Chill: 24°   Ceiling: Unl
Heat Index: 30°   Visibility: 10mi
Dew Point: 19°   Wind: 6mph
Humidity: 64%   Direction: 130°SE
Pressure: 30.23"   Gusts: NA
Location:  38.28°N, 82.1°W
Report Text: KHTS 282351Z 13005KT 10SM SCT120 M01/M07 A3023 RMK AO2 SLP245 60002 T10111072 10017 21011 58013
Loading
Personal Weather Stations






























Interactive Weather Map New forecast layout! Learn more

10-Day Weather Forecast

Advertisements
Track Severe Weather on mobile